Time;durP1;ratioP1;P1;durP2;ratioP2;P2;SDS_P1;SDS_P2;PMS_P1;PMS_P2;Temp;Humidity;BMP_temperature;BMP_pressure;BME280_temperature;BME280_humidity;BME280_pressure;Samples;Min_cycle;Max_cycle;Signal;HPM_P1;HPM_P2
2023/02/09 00:01:18;;;;;;;28.85;16.23;;;;;;;;;;5013194;28;19917;-53
2023/02/09 00:03:44;;;;;;;25.67;15.07;;;;;;;;;;5030815;28;20025;-58
2023/02/09 00:06:12;;;;;;;26.13;13.32;;;;;;;;;;5031474;28;20033;-56
2023/02/09 00:08:38;;;;;;;25.23;13.20;;;;;;;;;;5031505;28;20029;-57
2023/02/09 00:11:08;;;;;;;22.33;12.73;;;;;;;;;;5042847;28;20037;-53
2023/02/09 00:13:35;;;;;;;22.48;12.57;;;;;;;;;;5014735;28;20464;-53
2023/02/09 00:16:01;;;;;;;24.65;13.93;;;;;;;;;;5029619;28;20029;-53
2023/02/09 00:18:29;;;;;;;27.75;15.25;;;;;;;;;;5042756;28;20056;-57
2023/02/09 00:20:59;;;;;;;26.20;13.48;;;;;;;;;;5024336;28;20021;-56
2023/02/09 00:23:26;;;;;;;23.67;13.13;;;;;;;;;;5035199;28;20033;-57
2023/02/09 00:25:52;;;;;;;23.33;12.65;;;;;;;;;;5030695;28;20045;-57
2023/02/09 00:28:19;;;;;;;23.73;12.73;;;;;;;;;;5031088;28;20036;-57
2023/02/09 00:30:45;;;;;;;23.48;13.32;;;;;;;;;;5030836;28;20033;-59
2023/02/09 00:33:11;;;;;;;24.27;13.85;;;;;;;;;;5029640;28;20030;-58
2023/02/09 00:35:43;;;;;;;23.02;12.75;;;;;;;;;;5011885;28;20021;-57
2023/02/09 00:38:10;;;;;;;22.48;12.68;;;;;;;;;;5073062;23;20121;-65
2023/02/09 00:40:36;;;;;;;23.30;11.55;;;;;;;;;;5092641;28;20110;-64
2023/02/09 00:43:03;;;;;;;20.67;11.90;;;;;;;;;;5093024;28;20016;-64
2023/02/09 00:45:29;;;;;;;22.55;12.52;;;;;;;;;;5093596;28;20016;-64
2023/02/09 00:47:55;;;;;;;24.83;13.77;;;;;;;;;;5093828;28;20441;-64
2023/02/09 00:50:21;;;;;;;21.45;12.60;;;;;;;;;;5075724;28;20024;-64
2023/02/09 00:52:47;;;;;;;24.52;13.30;;;;;;;;;;5068343;28;20488;-65
2023/02/09 00:55:13;;;;;;;19.08;12.00;;;;;;;;;;5055032;28;20043;-64
2023/02/09 00:57:39;;;;;;;22.20;11.52;;;;;;;;;;5074235;28;20024;-64
2023/02/09 01:00:06;;;;;;;25.88;12.10;;;;;;;;;;5074584;28;20553;-64
2023/02/09 01:02:32;;;;;;;22.75;12.90;;;;;;;;;;5074370;28;20089;-63
2023/02/09 01:04:58;;;;;;;21.42;11.52;;;;;;;;;;5073449;28;20056;-64
2023/02/09 01:07:24;;;;;;;23.77;12.35;;;;;;;;;;5073791;28;20024;-64
2023/02/09 01:09:50;;;;;;;23.33;12.68;;;;;;;;;;5073956;28;20036;-64
2023/02/09 01:12:16;;;;;;;24.48;12.57;;;;;;;;;;5074009;28;20033;-65
2023/02/09 01:14:42;;;;;;;21.90;12.10;;;;;;;;;;5073201;28;20055;-64
2023/02/09 01:17:08;;;;;;;21.02;11.18;;;;;;;;;;5074038;28;20488;-66
2023/02/09 01:19:34;;;;;;;20.63;11.32;;;;;;;;;;5074127;28;20135;-64
2023/02/09 01:22:01;;;;;;;21.95;11.68;;;;;;;;;;5056180;28;20042;-65
2023/02/09 01:24:27;;;;;;;22.25;11.45;;;;;;;;;;5072904;28;20029;-64
2023/02/09 01:26:53;;;;;;;21.52;11.63;;;;;;;;;;5073580;28;20027;-64
2023/02/09 01:29:20;;;;;;;23.00;12.05;;;;;;;;;;5074073;28;20032;-64
2023/02/09 01:31:46;;;;;;;21.38;11.48;;;;;;;;;;5079438;28;20488;-64
2023/02/09 01:34:14;;;;;;;20.73;12.10;;;;;;;;;;5093104;28;20123;-66
2023/02/09 01:36:40;;;;;;;21.23;11.82;;;;;;;;;;5093543;28;20457;-64
2023/02/09 01:39:06;;;;;;;21.05;11.63;;;;;;;;;;5077949;28;20036;-65
2023/02/09 01:41:32;;;;;;;20.67;11.40;;;;;;;;;;5073296;28;20016;-64
2023/02/09 01:44:01;;;;;;;20.55;11.60;;;;;;;;;;5072436;28;20457;-63
2023/02/09 01:46:29;;;;;;;20.63;12.18;;;;;;;;;;5073437;28;20028;-64
2023/02/09 01:49:08;;;;;;;26.02;11.27;;;;;;;;;;5055097;28;20064;-64
2023/02/09 01:51:40;;;;;;;20.90;12.40;;;;;;;;;;5073251;28;20507;-64
2023/02/09 01:54:09;;;;;;;21.17;11.00;;;;;;;;;;5054036;28;20028;-65
2023/02/09 01:56:36;;;;;;;20.48;11.70;;;;;;;;;;5073153;28;20447;-65
2023/02/09 01:59:02;;;;;;;23.27;12.30;;;;;;;;;;5068846;28;20039;-64
2023/02/09 02:01:28;;;;;;;20.40;11.35;;;;;;;;;;5092811;28;20023;-65
2023/02/09 02:03:54;;;;;;;23.95;11.70;;;;;;;;;;5091754;28;20484;-65
2023/02/09 02:06:21;;;;;;;23.40;11.40;;;;;;;;;;5074102;28;20119;-65
2023/02/09 02:08:55;;;;;;;21.45;12.60;;;;;;;;;;5074157;28;20035;-64
2023/02/09 02:11:22;;;;;;;22.42;12.60;;;;;;;;;;5073772;28;20056;-64
2023/02/09 02:13:48;;;;;;;21.48;11.70;;;;;;;;;;5071340;28;20477;-64
2023/02/09 02:16:24;;;;;;;25.75;13.00;;;;;;;;;;5072272;28;20025;-64
2023/02/09 02:19:14;;;;;;;21.25;11.57;;;;;;;;;;5072014;28;20046;-64
2023/02/09 02:21:53;;;;;;;22.95;12.38;;;;;;;;;;5071957;28;20020;-64
2023/02/09 02:24:28;;;;;;;24.33;12.52;;;;;;;;;;5066355;28;20501;-63
2023/02/09 02:26:56;;;;;;;24.02;12.43;;;;;;;;;;5092548;28;20078;-63
2023/02/09 02:29:28;;;;;;;20.70;11.95;;;;;;;;;;5092384;28;20030;-63
2023/02/09 02:31:57;;;;;;;23.65;12.60;;;;;;;;;;5092322;28;20032;-63
2023/02/09 02:34:26;;;;;;;22.70;11.73;;;;;;;;;;5091019;28;20028;-63
2023/02/09 02:36:52;;;;;;;20.08;11.75;;;;;;;;;;5074131;28;20024;-63
2023/02/09 02:39:27;;;;;;;25.38;12.70;;;;;;;;;;5073974;28;20028;-64
2023/02/09 02:44:45;;;;;;;24.67;13.80;;;;;;;;;;5091413;28;20453;-63
2023/02/09 02:47:15;;;;;;;22.45;12.07;;;;;;;;;;5073787;28;20043;-64
2023/02/09 02:49:47;;;;;;;21.83;11.93;;;;;;;;;;5073369;28;20077;-63
2023/02/09 02:52:13;;;;;;;22.73;12.25;;;;;;;;;;5092021;28;20024;-63
2023/02/09 02:54:41;;;;;;;23.60;13.13;;;;;;;;;;5089198;28;20031;-63
2023/02/09 02:57:11;;;;;;;24.63;12.63;;;;;;;;;;5091723;28;20012;-64
2023/02/09 02:59:42;;;;;;;25.15;13.23;;;;;;;;;;5091647;28;20495;-64
2023/02/09 03:02:28;;;;;;;24.88;12.13;;;;;;;;;;5091773;28;20095;-63
2023/02/09 03:04:56;;;;;;;21.27;11.95;;;;;;;;;;5088875;28;20056;-63
2023/02/09 03:07:22;;;;;;;22.20;12.48;;;;;;;;;;5073361;28;20027;-63
2023/02/09 03:09:49;;;;;;;23.05;13.18;;;;;;;;;;5091427;28;20036;-62
2023/02/09 03:12:25;;;;;;;24.58;12.43;;;;;;;;;;5073173;28;20111;-63
2023/02/09 03:15:04;;;;;;;23.75;12.30;;;;;;;;;;5090492;28;20024;-63
2023/02/09 03:20:39;;;;;;;22.40;12.00;;;;;;;;;;5092113;28;20027;-63
2023/02/09 03:23:07;;;;;;;21.20;11.68;;;;;;;;;;5090619;28;20479;-63
2023/02/09 03:25:37;;;;;;;22.95;12.63;;;;;;;;;;5089436;28;20103;-63
2023/02/09 03:28:22;;;;;;;23.58;12.27;;;;;;;;;;5073511;28;20043;-63
2023/02/09 03:30:48;;;;;;;22.80;12.60;;;;;;;;;;5073000;28;20051;-63
2023/02/09 03:33:22;;;;;;;26.33;12.98;;;;;;;;;;5072509;28;20039;-62
2023/02/09 03:35:50;;;;;;;22.65;12.75;;;;;;;;;;5091356;28;20024;-62
2023/02/09 03:38:19;;;;;;;23.77;13.52;;;;;;;;;;5072959;28;20491;-65
2023/02/09 03:40:45;;;;;;;22.80;12.13;;;;;;;;;;5072983;28;20475;-65
2023/02/09 03:43:12;;;;;;;23.08;12.00;;;;;;;;;;5090477;28;20024;-65
2023/02/09 03:45:38;;;;;;;21.92;12.65;;;;;;;;;;5091165;28;20176;-63
2023/02/09 03:48:04;;;;;;;23.05;11.85;;;;;;;;;;5072957;28;20036;-63
2023/02/09 03:50:31;;;;;;;23.35;12.98;;;;;;;;;;5091226;28;20027;-63
2023/02/09 03:52:57;;;;;;;23.75;13.35;;;;;;;;;;5090895;28;20077;-62
2023/02/09 03:55:23;;;;;;;24.35;13.25;;;;;;;;;;5088576;28;20092;-63
2023/02/09 03:57:49;;;;;;;25.58;14.75;;;;;;;;;;5090377;28;20040;-63
2023/02/09 04:00:15;;;;;;;24.05;13.98;;;;;;;;;;5090807;28;20020;-63
2023/02/09 04:02:41;;;;;;;24.08;13.43;;;;;;;;;;5090447;28;20020;-63
2023/02/09 04:05:07;;;;;;;22.85;14.02;;;;;;;;;;5089871;28;20032;-63
2023/02/09 04:07:34;;;;;;;25.77;13.45;;;;;;;;;;5072600;28;20395;-63
2023/02/09 04:10:00;;;;;;;21.65;13.13;;;;;;;;;;5072358;28;20027;-63
2023/02/09 04:12:26;;;;;;;23.48;12.85;;;;;;;;;;5090528;28;20376;-63
2023/02/09 04:14:51;;;;;;;25.45;13.13;;;;;;;;;;5071300;28;20024;-63
2023/02/09 04:17:17;;;;;;;23.70;12.50;;;;;;;;;;5090507;28;20020;-63
2023/02/09 04:19:44;;;;;;;24.77;12.77;;;;;;;;;;5090786;28;20012;-63
2023/02/09 04:22:09;;;;;;;23.92;14.52;;;;;;;;;;5091075;28;20020;-63
2023/02/09 04:24:36;;;;;;;25.55;13.27;;;;;;;;;;5090250;28;20025;-62
2023/02/09 04:27:01;;;;;;;25.92;13.43;;;;;;;;;;5090057;28;20487;-62
2023/02/09 04:29:27;;;;;;;25.13;13.27;;;;;;;;;;5093462;28;20028;-64
2023/02/09 04:31:54;;;;;;;22.88;12.07;;;;;;;;;;5094667;28;20108;-63
2023/02/09 04:34:21;;;;;;;22.65;12.65;;;;;;;;;;5093356;28;20480;-63
2023/02/09 04:36:47;;;;;;;22.17;13.00;;;;;;;;;;5076400;28;20479;-63
2023/02/09 04:39:13;;;;;;;24.75;13.10;;;;;;;;;;5075906;28;20439;-64
2023/02/09 04:41:39;;;;;;;24.10;13.27;;;;;;;;;;5075554;28;20021;-64
2023/02/09 04:44:05;;;;;;;25.80;14.18;;;;;;;;;;5093051;28;20089;-62
2023/02/09 04:46:31;;;;;;;25.38;13.55;;;;;;;;;;5093427;28;20024;-63
2023/02/09 04:48:57;;;;;;;24.65;12.88;;;;;;;;;;5093553;28;20467;-61
2023/02/09 04:51:23;;;;;;;27.08;13.63;;;;;;;;;;5093635;28;20077;-63
2023/02/09 04:53:49;;;;;;;23.42;11.75;;;;;;;;;;5091172;28;20111;-62
2023/02/09 04:56:16;;;;;;;25.10;13.57;;;;;;;;;;5073369;28;20091;-63
2023/02/09 05:01:27;;;;;;;23.30;13.43;;;;;;;;;;5080297;28;20031;-64
2023/02/09 05:03:53;;;;;;;24.60;12.85;;;;;;;;;;5094048;28;20032;-63
2023/02/09 05:06:20;;;;;;;25.13;12.40;;;;;;;;;;5094500;28;20085;-64
2023/02/09 05:08:47;;;;;;;26.50;14.98;;;;;;;;;;5094465;28;20647;-63
2023/02/09 05:11:14;;;;;;;24.42;13.70;;;;;;;;;;5094690;28;20023;-63
2023/02/09 05:13:39;;;;;;;23.95;12.90;;;;;;;;;;5073544;28;20028;-64
2023/02/09 05:16:11;;;;;;;26.73;14.27;;;;;;;;;;5094380;28;20115;-64
2023/02/09 05:18:37;;;;;;;22.42;13.55;;;;;;;;;;5093890;28;20094;-64
2023/02/09 05:21:04;;;;;;;27.08;13.40;;;;;;;;;;5094031;28;20103;-64
2023/02/09 05:23:30;;;;;;;29.13;13.68;;;;;;;;;;5092864;28;20502;-64
2023/02/09 05:25:56;;;;;;;25.05;13.70;;;;;;;;;;5076048;28;20024;-64
2023/02/09 05:28:22;;;;;;;25.13;15.20;;;;;;;;;;5075775;28;20121;-64
2023/02/09 05:30:55;;;;;;;26.77;13.80;;;;;;;;;;5075766;28;20051;-64
2023/02/09 05:33:21;;;;;;;25.00;14.20;;;;;;;;;;5092770;28;20857;-61
2023/02/09 05:35:47;;;;;;;21.20;12.50;;;;;;;;;;5093923;28;20020;-63
2023/02/09 05:38:13;;;;;;;26.10;14.52;;;;;;;;;;5089883;28;20098;-64
2023/02/09 05:40:39;;;;;;;27.52;14.65;;;;;;;;;;5092789;28;20039;-65
2023/02/09 05:43:05;;;;;;;27.77;14.30;;;;;;;;;;5074375;28;20035;-63
2023/02/09 05:45:31;;;;;;;46.63;16.17;;;;;;;;;;5077593;28;20028;-64
2023/02/09 05:47:57;;;;;;;40.78;16.63;;;;;;;;;;5091617;28;20096;-63
2023/02/09 05:50:23;;;;;;;23.30;13.65;;;;;;;;;;5093243;28;20389;-65
2023/02/09 05:52:49;;;;;;;23.80;14.15;;;;;;;;;;5093133;28;20063;-64
2023/02/09 05:55:15;;;;;;;25.27;14.35;;;;;;;;;;5092200;28;20051;-63
2023/02/09 05:57:41;;;;;;;24.58;14.48;;;;;;;;;;5074765;28;20054;-64
2023/02/09 06:00:07;;;;;;;24.98;14.40;;;;;;;;;;5055840;28;20060;-65
2023/02/09 06:02:33;;;;;;;30.45;15.00;;;;;;;;;;5072892;28;20488;-64
2023/02/09 06:04:59;;;;;;;28.15;14.13;;;;;;;;;;5071611;28;20034;-64
2023/02/09 06:07:25;;;;;;;23.30;13.15;;;;;;;;;;5072238;28;20055;-65
2023/02/09 06:09:51;;;;;;;27.35;14.77;;;;;;;;;;5072397;28;20028;-64
2023/02/09 06:12:17;;;;;;;25.90;14.50;;;;;;;;;;5072046;28;20031;-64
2023/02/09 06:14:43;;;;;;;27.98;14.90;;;;;;;;;;5071249;28;20020;-64
2023/02/09 06:17:09;;;;;;;27.50;13.05;;;;;;;;;;5072047;28;20436;-63
2023/02/09 06:19:35;;;;;;;26.58;14.15;;;;;;;;;;5053930;28;20020;-65
2023/02/09 06:22:01;;;;;;;24.38;14.93;;;;;;;;;;5071946;28;20112;-64
2023/02/09 06:24:27;;;;;;;24.25;14.38;;;;;;;;;;5071500;28;20039;-65
2023/02/09 06:26:55;;;;;;;31.48;15.13;;;;;;;;;;5071981;28;20031;-63
2023/02/09 06:29:21;;;;;;;27.65;15.18;;;;;;;;;;5071205;28;20021;-66
2023/02/09 06:31:47;;;;;;;28.05;15.05;;;;;;;;;;5071699;28;20028;-65
2023/02/09 06:34:13;;;;;;;26.73;14.60;;;;;;;;;;5079199;28;20021;-65
2023/02/09 06:36:39;;;;;;;24.98;14.32;;;;;;;;;;5091624;28;20036;-65
2023/02/09 06:39:09;;;;;;;27.25;14.90;;;;;;;;;;5082614;22;20037;-52
2023/02/09 06:41:35;;;;;;;31.70;17.58;;;;;;;;;;5040276;28;20119;-54
2023/02/09 06:44:01;;;;;;;24.00;13.90;;;;;;;;;;5029236;28;20033;-56
2023/02/09 06:46:27;;;;;;;27.73;15.88;;;;;;;;;;5026383;28;20149;-55
2023/02/09 06:48:53;;;;;;;27.13;15.02;;;;;;;;;;5013182;28;20057;-51
2023/02/09 06:51:19;;;;;;;27.88;14.52;;;;;;;;;;5006880;28;20029;-55
2023/02/09 06:53:45;;;;;;;26.00;13.57;;;;;;;;;;5028441;28;20044;-56
2023/02/09 06:56:12;;;;;;;23.58;13.70;;;;;;;;;;5034926;28;20393;-57
2023/02/09 06:58:38;;;;;;;26.02;14.10;;;;;;;;;;5033215;28;20099;-53
2023/02/09 07:01:05;;;;;;;29.25;14.93;;;;;;;;;;5030830;28;20030;-53
2023/02/09 07:03:32;;;;;;;28.27;14.80;;;;;;;;;;5029578;28;20497;-54
2023/02/09 07:06:04;;;;;;;28.58;14.45;;;;;;;;;;5037598;28;20026;-56
2023/02/09 07:08:30;;;;;;;26.98;15.20;;;;;;;;;;5030615;28;20025;-56
2023/02/09 07:10:56;;;;;;;23.48;12.88;;;;;;;;;;5031028;28;20025;-56
2023/02/09 07:13:22;;;;;;;29.65;14.27;;;;;;;;;;5029505;28;20037;-52
2023/02/09 07:15:58;;;;;;;32.30;15.88;;;;;;;;;;5030841;28;20025;-59
2023/02/09 07:18:24;;;;;;;30.63;15.02;;;;;;;;;;5014683;28;20101;-56
2023/02/09 07:20:54;;;;;;;28.83;13.68;;;;;;;;;;5031873;28;20061;-54
2023/02/09 07:23:20;;;;;;;25.27;15.75;;;;;;;;;;5030371;28;20099;-53
2023/02/09 07:25:46;;;;;;;25.00;13.65;;;;;;;;;;5031066;28;20470;-53
2023/02/09 07:28:12;;;;;;;27.30;15.50;;;;;;;;;;5030796;28;20041;-57
2023/02/09 07:30:41;;;;;;;28.55;14.02;;;;;;;;;;5030850;28;20028;-54
2023/02/09 07:33:08;;;;;;;29.45;13.90;;;;;;;;;;5029975;28;20025;-58
2023/02/09 07:35:34;;;;;;;28.65;15.07;;;;;;;;;;5029879;28;20026;-56
2023/02/09 07:38:00;;;;;;;27.60;14.50;;;;;;;;;;5012712;28;20474;-56
2023/02/09 07:40:26;;;;;;;25.33;14.88;;;;;;;;;;5031927;28;20022;-53
2023/02/09 07:42:52;;;;;;;25.08;14.05;;;;;;;;;;5031822;28;20017;-53
2023/02/09 07:45:18;;;;;;;26.02;14.43;;;;;;;;;;5030340;28;20029;-54
2023/02/09 07:47:44;;;;;;;30.13;14.98;;;;;;;;;;5030323;28;20083;-54
2023/02/09 07:50:10;;;;;;;25.30;14.02;;;;;;;;;;5013475;28;20113;-58
2023/02/09 07:52:36;;;;;;;27.85;14.73;;;;;;;;;;5013126;28;20026;-57
2023/02/09 07:55:02;;;;;;;30.48;14.32;;;;;;;;;;5011967;28;20026;-57
2023/02/09 07:57:28;;;;;;;28.45;15.65;;;;;;;;;;5030552;28;20409;-52
2023/02/09 07:59:55;;;;;;;26.10;15.10;;;;;;;;;;5030650;28;20021;-58
2023/02/09 08:02:26;;;;;;;24.98;14.13;;;;;;;;;;5030938;28;20026;-53
2023/02/09 08:04:53;;;;;;;26.98;16.42;;;;;;;;;;5034139;28;20108;-52
2023/02/09 08:07:19;;;;;;;24.65;13.50;;;;;;;;;;5017372;28;20036;-57
2023/02/09 08:09:45;;;;;;;25.85;14.25;;;;;;;;;;5034574;28;20105;-56
2023/02/09 08:12:12;;;;;;;27.92;15.25;;;;;;;;;;5034388;28;20033;-56
2023/02/09 08:14:41;;;;;;;28.63;15.48;;;;;;;;;;5033839;28;20061;-57
2023/02/09 08:17:26;;;;;;;28.08;15.15;;;;;;;;;;5034312;28;20032;-56
2023/02/09 08:19:55;;;;;;;25.17;13.85;;;;;;;;;;5034515;28;20018;-56
2023/02/09 08:22:23;;;;;;;32.10;15.43;;;;;;;;;;5034479;28;20022;-55
2023/02/09 08:24:49;;;;;;;26.63;15.10;;;;;;;;;;5033675;28;20120;-54
2023/02/09 08:27:15;;;;;;;25.60;14.85;;;;;;;;;;5034348;28;20288;-56
2023/02/09 08:29:41;;;;;;;30.42;16.92;;;;;;;;;;5034456;28;20048;-53
2023/02/09 08:32:07;;;;;;;29.90;15.20;;;;;;;;;;5034392;28;20056;-55
2023/02/09 08:34:33;;;;;;;27.40;15.82;;;;;;;;;;5015787;28;20064;-52
2023/02/09 08:36:59;;;;;;;26.70;14.48;;;;;;;;;;5034209;28;20477;-56
2023/02/09 08:39:25;;;;;;;30.48;16.38;;;;;;;;;;5034191;28;20029;-58
2023/02/09 08:41:51;;;;;;;28.52;17.70;;;;;;;;;;5034242;28;20025;-58
2023/02/09 08:44:17;;;;;;;30.83;16.58;;;;;;;;;;5033406;28;20512;-56
2023/02/09 08:46:43;;;;;;;25.38;15.45;;;;;;;;;;5034325;28;20026;-54
2023/02/09 08:49:09;;;;;;;26.95;15.85;;;;;;;;;;5033887;28;20025;-58
2023/02/09 08:51:35;;;;;;;31.88;13.70;;;;;;;;;;5034062;28;20032;-55
2023/02/09 08:54:01;;;;;;;27.30;16.35;;;;;;;;;;5033368;28;20064;-52
2023/02/09 08:56:27;;;;;;;28.05;14.82;;;;;;;;;;5033969;28;20030;-51
2023/02/09 08:58:53;;;;;;;27.88;14.77;;;;;;;;;;5033894;28;20017;-54
2023/02/09 09:01:19;;;;;;;25.95;14.13;;;;;;;;;;5033911;28;20021;-53
2023/02/09 09:03:45;;;;;;;25.98;14.13;;;;;;;;;;5033271;28;20029;-57
2023/02/09 09:06:11;;;;;;;37.58;15.20;;;;;;;;;;5034011;28;20033;-54
2023/02/09 09:08:38;;;;;;;26.88;15.95;;;;;;;;;;5016280;28;20029;-54
2023/02/09 09:11:06;;;;;;;29.33;15.60;;;;;;;;;;5034331;28;20033;-63
2023/02/09 09:13:32;;;;;;;32.78;19.02;;;;;;;;;;5015177;28;20060;-53
2023/02/09 09:15:58;;;;;;;29.77;16.17;;;;;;;;;;5033497;28;20118;-50
2023/02/09 09:18:25;;;;;;;26.85;15.98;;;;;;;;;;5032692;28;20493;-48
2023/02/09 09:20:52;;;;;;;28.38;17.10;;;;;;;;;;5033316;28;20049;-57
2023/02/09 09:23:19;;;;;;;31.15;17.35;;;;;;;;;;5032274;28;20025;-54
2023/02/09 09:25:45;;;;;;;27.63;15.60;;;;;;;;;;5031862;28;20025;-57
2023/02/09 09:28:11;;;;;;;32.78;16.85;;;;;;;;;;5015525;28;20026;-58
2023/02/09 09:30:37;;;;;;;30.58;17.75;;;;;;;;;;5015448;28;20478;-58
2023/02/09 09:33:04;;;;;;;30.65;16.77;;;;;;;;;;5030806;28;20509;-56
2023/02/09 09:35:30;;;;;;;28.13;15.13;;;;;;;;;;5031696;28;20025;-58
2023/02/09 09:37:57;;;;;;;33.22;16.67;;;;;;;;;;5031924;28;20418;-56
2023/02/09 09:40:24;;;;;;;29.50;15.90;;;;;;;;;;5014106;28;20427;-54
2023/02/09 09:42:52;;;;;;;32.10;16.47;;;;;;;;;;5032333;28;20030;-57
2023/02/09 09:45:20;;;;;;;25.35;13.88;;;;;;;;;;5031656;28;20033;-60
2023/02/09 09:47:46;;;;;;;25.30;14.15;;;;;;;;;;5032217;28;20032;-58
2023/02/09 09:50:19;;;;;;;28.20;15.00;;;;;;;;;;5014770;28;20029;-58
2023/02/09 09:53:00;;;;;;;27.88;16.25;;;;;;;;;;5032407;28;20512;-57
2023/02/09 09:55:27;;;;;;;29.67;15.75;;;;;;;;;;5032533;28;20033;-56
2023/02/09 09:57:54;;;;;;;29.63;16.05;;;;;;;;;;5032714;28;20482;-57
2023/02/09 10:00:25;;;;;;;29.17;16.50;;;;;;;;;;5014753;28;20347;-53
2023/02/09 10:02:51;;;;;;;31.05;16.65;;;;;;;;;;5032612;28;20018;-57
2023/02/09 10:05:22;;;;;;;27.27;14.48;;;;;;;;;;5014258;28;20036;-51
2023/02/09 10:07:54;;;;;;;28.77;16.45;;;;;;;;;;5032594;28;20059;-56
2023/02/09 10:10:33;;;;;;;31.38;16.63;;;;;;;;;;5014828;28;20021;-56
2023/02/09 10:12:58;;;;;;;;;;;;;;;;;;5032778;28;20025;-57
2023/02/09 10:15:27;;;;;;;26.60;16.00;;;;;;;;;;5031587;28;19962;-56
2023/02/09 10:17:54;;;;;;;28.80;18.05;;;;;;;;;;5031577;28;20018;-57
2023/02/09 10:20:38;;;;;;;26.73;15.07;;;;;;;;;;5032317;28;20026;-59
2023/02/09 10:23:04;;;;;;;32.90;17.90;;;;;;;;;;5031495;28;20025;-61
2023/02/09 10:25:49;;;;;;;29.52;16.38;;;;;;;;;;5032420;28;20489;-58
2023/02/09 10:28:19;;;;;;;28.77;15.82;;;;;;;;;;5032054;28;20044;-59
2023/02/09 10:30:46;;;;;;;26.27;15.05;;;;;;;;;;5014428;28;20389;-57
2023/02/09 10:33:14;;;;;;;29.38;16.58;;;;;;;;;;5031318;28;20087;-57
2023/02/09 10:35:45;;;;;;;31.70;16.23;;;;;;;;;;5032143;28;20099;-59
2023/02/09 10:38:15;;;;;;;31.40;16.80;;;;;;;;;;5031531;28;20065;-57
2023/02/09 10:40:41;;;;;;;30.60;17.33;;;;;;;;;;5032134;28;20017;-58
2023/02/09 10:43:17;;;;;;;29.52;16.67;;;;;;;;;;5031181;28;20029;-58
2023/02/09 10:45:46;;;;;;;26.33;15.57;;;;;;;;;;5013915;28;20043;-58
2023/02/09 10:48:13;;;;;;;33.85;16.65;;;;;;;;;;5030925;28;20474;-57
2023/02/09 10:50:48;;;;;;;26.95;15.45;;;;;;;;;;5031630;28;20295;-56
2023/02/09 10:53:18;;;;;;;32.55;15.55;;;;;;;;;;5030913;28;20109;-57
2023/02/09 10:55:45;;;;;;;28.75;16.20;;;;;;;;;;5031867;28;20075;-58
2023/02/09 10:58:11;;;;;;;27.75;15.43;;;;;;;;;;5031917;28;20122;-58
2023/02/09 11:00:42;;;;;;;26.65;15.82;;;;;;;;;;5031794;28;20021;-58
2023/02/09 11:03:17;;;;;;;26.58;14.52;;;;;;;;;;5031093;28;20018;-57
2023/02/09 11:05:45;;;;;;;30.05;17.55;;;;;;;;;;5031860;28;20071;-57
2023/02/09 11:08:11;;;;;;;23.80;14.15;;;;;;;;;;5031424;28;20084;-53
2023/02/09 11:10:41;;;;;;;25.88;14.40;;;;;;;;;;5013489;28;20041;-54
2023/02/09 11:13:16;;;;;;;27.38;15.10;;;;;;;;;;5012796;28;20370;-58
2023/02/09 11:15:46;;;;;;;28.90;16.48;;;;;;;;;;5031488;28;20029;-58
2023/02/09 11:18:19;;;;;;;29.20;17.08;;;;;;;;;;5013658;28;20014;-55
2023/02/09 11:20:53;;;;;;;28.52;16.38;;;;;;;;;;5013384;28;20215;-55
2023/02/09 11:23:34;;;;;;;27.10;17.13;;;;;;;;;;5030016;28;20095;-52
2023/02/09 11:26:08;;;;;;;26.83;15.55;;;;;;;;;;5018816;28;20028;-57
2023/02/09 11:28:46;;;;;;;35.83;17.38;;;;;;;;;;5011342;28;20394;-57
2023/02/09 11:31:12;;;;;;;26.55;16.08;;;;;;;;;;5011840;28;20105;-59
2023/02/09 11:33:48;;;;;;;35.22;19.38;;;;;;;;;;4992889;28;20121;-60
2023/02/09 11:36:17;;;;;;;23.98;15.52;;;;;;;;;;5023394;28;20033;-59
2023/02/09 11:38:59;;;;;;;25.55;16.15;;;;;;;;;;5030672;28;20072;-59
2023/02/09 11:44:34;;;;;;;26.70;16.95;;;;;;;;;;5030558;28;20049;-61
2023/02/09 11:47:05;;;;;;;27.13;17.55;;;;;;;;;;5013366;28;20457;-58
2023/02/09 11:49:43;;;;;;;25.63;16.42;;;;;;;;;;5030457;28;20040;-59
2023/02/09 11:52:13;;;;;;;26.90;16.83;;;;;;;;;;5031052;28;20087;-61
2023/02/09 11:54:39;;;;;;;28.05;17.17;;;;;;;;;;5030650;28;20489;-57
2023/02/09 11:57:14;;;;;;;25.25;16.08;;;;;;;;;;5031156;28;20021;-55
2023/02/09 11:59:42;;;;;;;26.42;17.65;;;;;;;;;;5036548;28;20023;-58
2023/02/09 12:02:26;;;;;;;25.23;15.77;;;;;;;;;;5041849;28;20393;-59
2023/02/09 12:04:54;;;;;;;26.48;16.58;;;;;;;;;;5034561;28;20030;-59
2023/02/09 12:07:41;;;;;;;25.10;15.85;;;;;;;;;;5034214;28;20088;-53
2023/02/09 12:10:16;;;;;;;26.10;15.10;;;;;;;;;;5015941;28;20057;-57
2023/02/09 12:12:55;;;;;;;29.70;15.88;;;;;;;;;;5038496;28;20104;-58
2023/02/09 12:15:21;;;;;;;25.63;16.63;;;;;;;;;;5031086;28;20120;-56
2023/02/09 12:17:47;;;;;;;24.73;15.50;;;;;;;;;;5030435;28;20067;-58
2023/02/09 12:20:39;;;;;;;26.85;16.05;;;;;;;;;;5031478;28;20013;-55
2023/02/09 12:23:24;;;;;;;27.67;16.67;;;;;;;;;;4986274;28;20082;-57
2023/02/09 12:25:59;;;;;;;27.50;16.42;;;;;;;;;;5030050;28;20118;-57
2023/02/09 12:28:31;;;;;;;27.58;17.17;;;;;;;;;;5029997;28;20036;-61
2023/02/09 12:30:57;;;;;;;25.45;15.93;;;;;;;;;;5029717;28;20038;-59
2023/02/09 12:33:23;;;;;;;23.58;15.25;;;;;;;;;;5029833;28;20032;-60
2023/02/09 12:36:08;;;;;;;24.77;15.30;;;;;;;;;;5030471;28;20037;-54
2023/02/09 12:38:56;;;;;;;30.65;16.30;;;;;;;;;;5047355;22;20033;-64
2023/02/09 12:41:22;;;;;;;26.63;16.48;;;;;;;;;;5048492;28;20504;-63
2023/02/09 12:43:49;;;;;;;26.85;15.93;;;;;;;;;;5048253;28;20370;-65
2023/02/09 12:46:21;;;;;;;24.60;15.35;;;;;;;;;;5047676;28;20090;-64
2023/02/09 12:48:49;;;;;;;27.17;15.80;;;;;;;;;;5047445;28;20029;-63
2023/02/09 12:51:34;;;;;;;27.95;16.50;;;;;;;;;;5049495;28;20045;-61
2023/02/09 12:54:00;;;;;;;24.85;15.60;;;;;;;;;;5045799;28;20032;-63
2023/02/09 12:56:28;;;;;;;24.58;15.60;;;;;;;;;;5044735;28;20017;-64
2023/02/09 12:59:14;;;;;;;26.33;16.48;;;;;;;;;;5048022;28;20074;-65
2023/02/09 13:01:59;;;;;;;24.67;15.27;;;;;;;;;;5051852;28;20478;-64
2023/02/09 13:04:26;;;;;;;25.75;15.02;;;;;;;;;;5051077;28;20112;-64
2023/02/09 13:06:56;;;;;;;23.58;14.88;;;;;;;;;;5051632;28;20039;-63
2023/02/09 13:09:28;;;;;;;29.00;15.88;;;;;;;;;;5052303;28;20056;-64
2023/02/09 13:12:14;;;;;;;22.23;13.55;;;;;;;;;;5051431;28;20118;-64
2023/02/09 13:14:46;;;;;;;25.35;15.07;;;;;;;;;;5032674;28;20116;-62
2023/02/09 13:17:31;;;;;;;24.13;14.80;;;;;;;;;;5051644;28;20501;-63
2023/02/09 13:20:00;;;;;;;25.73;14.60;;;;;;;;;;5051423;28;20481;-63
2023/02/09 13:22:32;;;;;;;26.83;15.73;;;;;;;;;;5043502;28;20358;-64
2023/02/09 13:24:58;;;;;;;23.88;15.00;;;;;;;;;;5050103;28;20027;-63
2023/02/09 13:27:26;;;;;;;27.67;16.98;;;;;;;;;;5049772;28;20033;-65
2023/02/09 13:29:53;;;;;;;25.35;16.15;;;;;;;;;;5051579;28;20033;-64
2023/02/09 13:32:25;;;;;;;27.17;16.30;;;;;;;;;;5051539;28;20047;-64
2023/02/09 13:34:55;;;;;;;25.95;16.00;;;;;;;;;;5032033;28;20120;-64
2023/02/09 13:37:26;;;;;;;25.42;17.05;;;;;;;;;;5050615;28;20025;-63
2023/02/09 13:39:54;;;;;;;26.08;16.85;;;;;;;;;;5049427;28;20494;-62
2023/02/09 13:42:22;;;;;;;23.55;15.00;;;;;;;;;;5030071;28;20058;-64
2023/02/09 13:44:53;;;;;;;25.53;16.07;;;;;;;;;;5042675;28;20025;-65
2023/02/09 13:47:19;;;;;;;27.23;15.77;;;;;;;;;;5051018;28;20485;-63
2023/02/09 13:50:03;;;;;;;23.88;15.15;;;;;;;;;;5050755;28;20028;-63
2023/02/09 13:52:33;;;;;;;23.90;15.38;;;;;;;;;;5050561;28;20029;-63
2023/02/09 13:55:08;;;;;;;24.67;15.02;;;;;;;;;;5050144;28;20389;-63
2023/02/09 13:57:35;;;;;;;25.40;15.80;;;;;;;;;;5046008;28;20029;-61
2023/02/09 14:00:07;;;;;;;23.50;14.93;;;;;;;;;;5013314;28;20025;-62
2023/02/09 14:02:34;;;;;;;27.58;16.23;;;;;;;;;;5031217;28;20024;-64
2023/02/09 14:05:02;;;;;;;25.20;15.57;;;;;;;;;;5030550;28;20502;-61
2023/02/09 14:07:37;;;;;;;26.10;15.20;;;;;;;;;;5029532;28;20116;-63
2023/02/09 14:10:10;;;;;;;28.17;15.00;;;;;;;;;;5012610;28;20517;-62
2023/02/09 14:12:54;;;;;;;22.73;13.40;;;;;;;;;;5039874;28;20432;-62
2023/02/09 14:18:23;;;;;;;28.38;16.60;;;;;;;;;;5051133;28;20043;-62
2023/02/09 14:21:03;;;;;;;25.08;14.48;;;;;;;;;;5050521;28;20374;-62
2023/02/09 14:23:31;;;;;;;26.65;14.45;;;;;;;;;;5044446;28;20479;-64
2023/02/09 14:26:15;;;;;;;26.98;14.52;;;;;;;;;;5050723;28;20056;-63
2023/02/09 14:28:43;;;;;;;24.50;15.45;;;;;;;;;;5029752;28;20113;-63
2023/02/09 14:31:19;;;;;;;27.33;15.38;;;;;;;;;;5029743;28;20120;-64
2023/02/09 14:33:49;;;;;;;27.27;15.98;;;;;;;;;;5030979;28;20026;-62
2023/02/09 14:36:25;;;;;;;24.70;14.82;;;;;;;;;;5041477;28;20034;-60
2023/02/09 14:38:51;;;;;;;26.77;16.20;;;;;;;;;;5050047;28;20490;-65
2023/02/09 14:41:37;;;;;;;31.30;17.73;;;;;;;;;;5050146;28;20020;-63
2023/02/09 14:44:06;;;;;;;25.73;16.88;;;;;;;;;;5048759;28;20489;-63